VIAG/AGR METAR and TAF weather

Enter ICAO airport designator
Station Type Date Time Source
VIAG METAR 2020/11/02 05:30 UTC NOAA

VIAG 020530Z 31004KT 4000 HZ SKC 28/10 Q1017 BECMG 5000M


Station Type Date Time Source
VIAG Decoded METAR 2020/11/02 05:30 UTC NOAA

Agra, India (VIAG) 27-09N 077-58E 169M
Nov 02, 2020 - 12:30 AM EST / 2020.11.02 0530 UTC
Wind: from the NW (310 degrees) at 5 MPH (4 KT):0
Visibility: 2 mile(s):0
Sky conditions: clear
Weather: haze
Temperature: 82 F (28 C)
Dew Point: 50 F (10 C)
Relative Humidity: 32%
Pressure (altimeter): 30.03 in. Hg (1017 hPa)
ob: VIAG 020530Z 31004KT 4000 HZ SKC 28/10 Q1017 BECMG 5000M
cycle: 5

Station Type Date Time Source
VIAG TAF 2020/11/25 12:30 UTC NOAA

TAF VIAG 250930Z 2512/2524 11005KT 5000 HZ SCT100 SCT250
BECMG 2512/2516 3000 BR
BECMG 2517/2518 1500 BR

Example: see airport list